createdAt,value
2023-03-03T00:00:29.429Z,59.97
2023-03-03T00:03:21.470Z,58.91
2023-03-03T00:05:52.631Z,58.89
2023-03-03T00:08:23.330Z,60.47
2023-03-03T00:10:53.284Z,61.93
2023-03-03T00:13:25.093Z,63.60
2023-03-03T00:15:56.010Z,64.08
2023-03-03T00:18:36.349Z,63.07
2023-03-03T00:21:21.022Z,62.08
2023-03-03T00:23:50.879Z,61.23
2023-03-03T00:26:31.437Z,60.41
2023-03-03T00:29:02.292Z,59.80
2023-03-03T00:31:35.801Z,58.68
2023-03-03T00:34:20.665Z,59.51
2023-03-03T00:36:55.040Z,61.12
2023-03-03T00:39:34.133Z,63.05
2023-03-03T00:42:13.996Z,64.88
2023-03-03T00:44:50.155Z,64.08
2023-03-03T00:47:33.146Z,62.83
2023-03-03T00:50:11.586Z,61.79
2023-03-03T00:53:08.347Z,60.83
2023-03-03T00:55:39.941Z,60.16
2023-03-03T00:58:10.926Z,59.46
2023-03-03T01:00:42.596Z,58.76
2023-03-03T01:03:18.140Z,60.13
2023-03-03T01:05:52.144Z,62.09
2023-03-03T01:08:24.380Z,63.72
2023-03-03T01:10:56.910Z,64.65
2023-03-03T01:13:33.412Z,64.02
2023-03-03T01:16:04.251Z,62.78
2023-03-03T01:18:34.412Z,61.77
2023-03-03T01:21:04.139Z,60.99
2023-03-03T01:23:36.526Z,60.16
2023-03-03T01:26:06.218Z,59.17
2023-03-03T01:28:37.010Z,58.59
2023-03-03T01:31:14.862Z,59.83
2023-03-03T01:33:44.418Z,61.31
2023-03-03T01:36:14.495Z,63.27
2023-03-03T01:38:45.749Z,65.08
2023-03-03T01:41:22.029Z,63.75
2023-03-03T01:43:52.336Z,62.01
2023-03-03T01:46:33.534Z,61.74
2023-03-03T01:49:12.136Z,61.01
2023-03-03T01:52:18.277Z,60.49
2023-03-03T01:54:56.708Z,60.13
2023-03-03T01:57:33.671Z,59.17
2023-03-03T02:00:09.679Z,58.97
2023-03-03T02:02:49.544Z,60.25
2023-03-03T02:05:22.154Z,61.81
2023-03-03T02:07:57.485Z,63.90
2023-03-03T02:10:27.294Z,63.79
2023-03-03T02:12:58.879Z,63.22
2023-03-03T02:15:32.536Z,62.71
2023-03-03T02:18:06.285Z,62.07
2023-03-03T02:21:00.189Z,61.21
2023-03-03T02:24:02.976Z,60.60
2023-03-03T02:26:36.426Z,59.98
2023-03-03T02:29:09.745Z,58.91
2023-03-03T02:31:41.151Z,59.20
2023-03-03T02:34:12.086Z,61.21
2023-03-03T02:36:44.017Z,63.68
2023-03-03T02:39:23.999Z,63.77
2023-03-03T02:42:17.690Z,62.77
2023-03-03T02:44:52.558Z,61.18
2023-03-03T02:47:24.850Z,60.47
2023-03-03T02:50:01.540Z,59.88
2023-03-03T02:52:33.180Z,59.57
2023-03-03T02:55:09.801Z,58.70
2023-03-03T02:57:40.179Z,59.45
2023-03-03T03:00:12.221Z,61.09
2023-03-03T03:02:43.239Z,62.60
2023-03-03T03:05:18.751Z,63.38
2023-03-03T03:07:55.844Z,62.80
2023-03-03T03:10:27.594Z,60.86
2023-03-03T03:13:00.923Z,60.53
2023-03-03T03:15:33.916Z,60.30
2023-03-03T03:18:06.091Z,59.75
2023-03-03T03:20:40.655Z,59.50
2023-03-03T03:23:17.878Z,58.79
2023-03-03T03:25:49.692Z,59.85
2023-03-03T03:28:27.036Z,62.94
2023-03-03T03:30:57.645Z,63.95
2023-03-03T03:33:32.441Z,63.31
2023-03-03T03:36:07.295Z,62.65
2023-03-03T03:38:46.516Z,61.93
2023-03-03T03:41:16.867Z,60.99
2023-03-03T03:43:48.712Z,60.26
2023-03-03T03:46:24.450Z,59.66
2023-03-03T03:48:54.125Z,58.70
2023-03-03T03:51:25.500Z,59.34
2023-03-03T03:53:57.523Z,61.37
2023-03-03T03:56:30.592Z,62.77
2023-03-03T03:59:02.676Z,64.76
2023-03-03T04:01:32.722Z,64.97
2023-03-03T04:04:06.146Z,64.16
2023-03-03T04:06:40.122Z,63.13
2023-03-03T04:09:12.491Z,62.16
2023-03-03T04:11:42.459Z,60.96
2023-03-03T04:14:15.359Z,59.31
2023-03-03T04:16:47.850Z,59.19
2023-03-03T04:19:19.742Z,60.97
2023-03-03T04:21:53.287Z,62.41
2023-03-03T04:24:22.872Z,64.28
2023-03-03T04:26:53.182Z,64.30
2023-03-03T04:29:22.224Z,62.89
2023-03-03T04:31:51.167Z,61.88
2023-03-03T04:34:21.580Z,60.73
2023-03-03T04:36:50.390Z,59.94
2023-03-03T04:39:20.298Z,59.75
2023-03-03T04:41:49.240Z,59.25
2023-03-03T04:44:18.981Z,58.58
2023-03-03T04:46:48.098Z,60.13
2023-03-03T04:49:17.688Z,61.95
2023-03-03T04:51:49.024Z,63.49
2023-03-03T04:54:21.558Z,63.25
2023-03-03T04:56:50.474Z,62.48
2023-03-03T04:59:20.894Z,62.25
2023-03-03T05:01:51.356Z,61.02
2023-03-03T05:04:20.595Z,60.13
2023-03-03T05:06:51.374Z,60.09
2023-03-03T05:09:21.148Z,59.85
2023-03-03T05:11:50.626Z,59.37
2023-03-03T05:14:19.422Z,58.88
2023-03-03T05:16:50.467Z,60.13
2023-03-03T05:19:19.433Z,61.47
2023-03-03T05:21:48.810Z,63.31
2023-03-03T05:24:18.062Z,64.81
2023-03-03T05:26:47.635Z,64.62
2023-03-03T05:29:17.285Z,63.07
2023-03-03T05:31:46.149Z,62.28
2023-03-03T05:34:15.236Z,61.63
2023-03-03T05:36:44.682Z,60.78
2023-03-03T05:39:14.238Z,60.52
2023-03-03T05:41:43.134Z,60.09
2023-03-03T05:44:12.814Z,59.56
2023-03-03T05:46:42.893Z,58.92
2023-03-03T05:49:13.901Z,60.33
2023-03-03T05:51:43.699Z,63.56
2023-03-03T05:54:13.794Z,64.48
2023-03-03T05:56:44.202Z,64.06
2023-03-03T05:59:14.528Z,63.56
2023-03-03T06:01:46.055Z,62.53
2023-03-03T06:04:16.525Z,61.91
2023-03-03T06:06:45.538Z,60.71
2023-03-03T06:09:14.291Z,60.50
2023-03-03T06:11:43.804Z,59.80
2023-03-03T06:14:15.610Z,59.62
2023-03-03T06:16:45.356Z,58.85
2023-03-03T06:19:14.989Z,59.98
2023-03-03T06:21:43.873Z,61.98
2023-03-03T06:24:12.688Z,63.55
2023-03-03T06:26:43.722Z,63.67
2023-03-03T06:29:14.644Z,62.88
2023-03-03T06:31:45.204Z,62.43
2023-03-03T06:34:14.211Z,60.80
2023-03-03T06:36:43.915Z,60.01
2023-03-03T06:39:12.994Z,59.60
2023-03-03T06:41:42.061Z,59.30
2023-03-03T06:44:12.695Z,61.27
2023-03-03T06:46:42.037Z,63.14
2023-03-03T06:49:10.914Z,63.18
2023-03-03T06:51:41.683Z,61.82
2023-03-03T06:54:15.230Z,60.86
2023-03-03T06:56:46.005Z,60.30
2023-03-03T06:59:21.452Z,59.64
2023-03-03T07:01:51.258Z,59.12
2023-03-03T07:04:26.440Z,59.26
2023-03-03T07:06:58.452Z,61.47
2023-03-03T07:09:30.289Z,63.35
2023-03-03T07:12:07.474Z,63.08
2023-03-03T07:14:42.791Z,62.27
2023-03-03T07:17:21.104Z,61.42
2023-03-03T07:19:52.370Z,60.76
2023-03-03T07:22:25.044Z,60.44
2023-03-03T07:25:02.830Z,59.92
2023-03-03T07:27:47.085Z,59.69
2023-03-03T07:30:30.213Z,58.66
2023-03-03T07:33:00.519Z,59.79
2023-03-03T07:35:43.487Z,61.70
2023-03-03T07:38:32.344Z,63.72
2023-03-03T07:41:04.369Z,63.89
2023-03-03T07:43:37.537Z,63.11
2023-03-03T07:46:37.358Z,62.06
2023-03-03T07:49:24.083Z,60.49
2023-03-03T07:51:58.552Z,59.76
2023-03-03T07:54:40.807Z,58.77
2023-03-03T07:57:13.434Z,60.93
2023-03-03T07:59:49.051Z,62.86
2023-03-03T08:02:40.917Z,63.48
2023-03-03T08:05:39.644Z,62.69
2023-03-03T08:08:31.478Z,61.18
2023-03-03T08:11:06.174Z,60.84
2023-03-03T08:13:41.496Z,60.27
2023-03-03T08:16:12.233Z,59.13
2023-03-03T08:18:55.121Z,59.04
2023-03-03T08:21:29.815Z,61.04
2023-03-03T08:23:59.813Z,62.73
2023-03-03T08:26:32.138Z,63.76
2023-03-03T08:29:01.724Z,62.98
2023-03-03T08:31:40.816Z,61.74
2023-03-03T08:34:14.532Z,60.97
2023-03-03T08:36:43.581Z,59.80
2023-03-03T08:39:15.799Z,58.97
2023-03-03T08:41:48.544Z,60.19
2023-03-03T08:44:20.730Z,61.97
2023-03-03T08:46:50.357Z,63.89
2023-03-03T08:49:20.222Z,63.42
2023-03-03T08:51:49.641Z,62.56
2023-03-03T08:54:18.527Z,61.33
2023-03-03T08:56:47.316Z,60.47
2023-03-03T08:59:16.464Z,59.48
2023-03-03T09:01:47.665Z,59.20
2023-03-03T09:04:16.569Z,60.51
2023-03-03T09:06:45.595Z,62.89
2023-03-03T09:09:17.456Z,63.70
2023-03-03T09:11:47.845Z,62.68
2023-03-03T09:14:21.110Z,61.33
2023-03-03T09:16:56.109Z,60.16
2023-03-03T09:19:36.182Z,59.63
2023-03-03T09:22:24.456Z,59.05
2023-03-03T09:24:56.833Z,60.51
2023-03-03T09:27:31.676Z,62.02
2023-03-03T09:30:36.883Z,64.29
2023-03-03T09:33:41.887Z,63.99
2023-03-03T09:36:38.111Z,62.49
2023-03-03T09:39:20.999Z,61.16
2023-03-03T09:42:13.446Z,60.83
2023-03-03T09:44:50.640Z,59.74
2023-03-03T09:47:31.029Z,58.78
2023-03-03T09:50:27.833Z,59.87
2023-03-03T09:53:25.460Z,61.77
2023-03-03T09:56:09.000Z,64.20
2023-03-03T09:58:46.946Z,63.54
2023-03-03T10:01:46.606Z,62.14
2023-03-03T10:04:48.100Z,61.29
2023-03-03T10:07:27.826Z,60.33
2023-03-03T10:10:12.583Z,59.11
2023-03-03T10:13:14.133Z,59.15
2023-03-03T10:15:59.628Z,61.21
2023-03-03T10:18:53.331Z,63.42
2023-03-03T10:21:52.247Z,62.82
2023-03-03T10:24:35.997Z,61.32
2023-03-03T10:27:24.938Z,60.45
2023-03-03T10:30:39.944Z,59.99
2023-03-03T10:33:33.783Z,58.78
2023-03-03T10:36:16.526Z,60.81
2023-03-03T10:38:46.818Z,63.07
2023-03-03T10:41:26.975Z,63.24
2023-03-03T10:44:09.515Z,62.10
2023-03-03T10:47:30.110Z,60.70
2023-03-03T10:50:32.702Z,60.15
2023-03-03T10:53:30.289Z,59.14
2023-03-03T10:56:17.504Z,58.76
2023-03-03T10:59:12.314Z,60.19
2023-03-03T11:02:01.179Z,62.33
2023-03-03T11:05:05.860Z,64.16
2023-03-03T11:07:49.587Z,63.16
2023-03-03T11:11:00.671Z,61.90
2023-03-03T11:13:57.761Z,60.81
2023-03-03T11:16:39.427Z,60.12
2023-03-03T11:19:53.126Z,59.77
2023-03-03T11:22:48.805Z,58.81
2023-03-03T11:25:21.441Z,59.82
2023-03-03T11:28:27.511Z,62.44
2023-03-03T11:31:31.825Z,63.00
2023-03-03T11:34:24.823Z,61.85
2023-03-03T11:37:18.880Z,60.68
2023-03-03T11:40:58.917Z,59.49
2023-03-03T11:43:49.759Z,58.56
2023-03-03T11:46:44.493Z,60.36
2023-03-03T11:49:37.089Z,62.27
2023-03-03T11:52:36.670Z,63.56
2023-03-03T11:55:54.551Z,62.32
2023-03-03T11:59:19.038Z,61.43
2023-03-03T12:02:01.772Z,59.89
2023-03-03T12:05:39.989Z,58.87
2023-03-03T12:09:50.087Z,61.03
2023-03-03T12:13:30.484Z,63.63
2023-03-03T12:16:58.247Z,62.74
2023-03-03T13:10:52.591Z,60.77
2023-03-03T13:22:06.216Z,60.25
2023-03-03T13:25:34.450Z,59.17
2023-03-03T13:29:14.669Z,59.60
2023-03-03T13:32:43.255Z,62.07
2023-03-03T13:36:53.051Z,63.63
2023-03-03T13:40:27.035Z,61.59
2023-03-03T13:44:00.862Z,60.50
2023-03-03T13:47:07.331Z,58.92
2023-03-03T13:51:09.422Z,60.04
2023-03-03T13:54:40.455Z,62.82
2023-03-03T13:57:22.773Z,63.19
2023-03-03T14:00:40.543Z,61.61
2023-03-03T14:03:47.562Z,60.37
2023-03-03T14:06:57.621Z,58.99
2023-03-03T14:10:42.463Z,60.15
2023-03-03T14:14:10.147Z,62.00
2023-03-03T14:17:13.765Z,63.74
2023-03-03T14:20:32.051Z,62.91
2023-03-03T14:23:55.701Z,61.47
2023-03-03T14:26:29.582Z,59.81
2023-03-03T14:29:29.196Z,58.55
2023-03-03T14:32:39.468Z,59.55
2023-03-03T14:35:22.348Z,61.38
2023-03-03T14:38:26.338Z,63.46
2023-03-03T14:42:01.007Z,63.19
2023-03-03T14:45:14.590Z,61.45
2023-03-03T14:47:57.585Z,59.96
2023-03-03T14:50:41.697Z,58.83
2023-03-03T14:53:40.579Z,60.21
2023-03-03T14:56:29.522Z,62.42
2023-03-03T14:59:26.646Z,63.72
2023-03-03T15:02:19.273Z,62.57
2023-03-03T15:04:51.904Z,61.00
2023-03-03T15:07:39.023Z,59.69
2023-03-03T15:10:11.265Z,59.09
2023-03-03T15:12:44.396Z,58.85
2023-03-03T15:15:23.118Z,60.61
2023-03-03T15:18:13.009Z,62.39
2023-03-03T15:21:11.725Z,64.08
2023-03-03T15:24:00.290Z,62.68
2023-03-03T15:26:51.614Z,61.65
2023-03-03T15:29:29.410Z,60.03
2023-03-03T15:32:23.107Z,59.21
2023-03-03T15:35:03.732Z,59.35
2023-03-03T15:37:53.135Z,61.39
2023-03-03T15:40:29.780Z,63.53
2023-03-03T15:43:31.209Z,63.17
2023-03-03T15:46:32.712Z,61.77
2023-03-03T15:49:44.005Z,60.72
2023-03-03T15:52:24.161Z,58.98
2023-03-03T15:55:18.545Z,59.38
2023-03-03T15:58:18.958Z,61.91
2023-03-03T16:01:28.786Z,63.29
2023-03-03T16:04:25.890Z,61.95
2023-03-03T16:07:21.845Z,60.91
2023-03-03T16:10:12.669Z,59.96
2023-03-03T16:13:22.319Z,58.78
2023-03-03T16:16:10.600Z,60.03
2023-03-03T16:19:18.424Z,62.25
2023-03-03T16:22:37.061Z,63.73
2023-03-03T16:25:34.993Z,62.45
2023-03-03T16:28:28.000Z,60.63
2023-03-03T16:31:06.980Z,59.81
2023-03-03T16:34:01.062Z,58.76
2023-03-03T16:37:06.742Z,59.81
2023-03-03T16:40:09.469Z,62.06
2023-03-03T16:42:43.667Z,63.77
2023-03-03T16:45:25.896Z,63.39
2023-03-03T16:48:27.456Z,62.07
2023-03-03T16:51:09.948Z,61.12
2023-03-03T16:54:09.303Z,59.97
2023-03-03T16:56:47.999Z,58.97
2023-03-03T16:59:34.377Z,60.12
2023-03-03T17:02:51.075Z,61.98
2023-03-03T17:05:53.159Z,63.84
2023-03-03T17:08:34.079Z,62.88
2023-03-03T17:11:20.704Z,61.51
2023-03-03T17:14:04.781Z,60.55
2023-03-03T17:16:58.737Z,59.39
2023-03-03T17:19:49.780Z,59.38
2023-03-03T17:23:00.447Z,61.24
2023-03-03T17:25:40.060Z,63.99
2023-03-03T17:28:34.479Z,63.70
2023-03-03T17:31:22.540Z,62.49
2023-03-03T17:34:05.563Z,61.15
2023-03-03T17:36:56.493Z,60.39
2023-03-03T17:40:01.079Z,59.55
2023-03-03T17:42:49.719Z,59.14
2023-03-03T17:45:21.375Z,60.84
2023-03-03T17:48:14.167Z,62.38
2023-03-03T17:50:53.031Z,64.48
2023-03-03T17:54:01.016Z,63.59
2023-03-03T17:56:56.222Z,61.96
2023-03-03T17:59:52.052Z,61.13
2023-03-03T18:02:55.916Z,59.95
2023-03-03T18:05:36.436Z,58.77
2023-03-03T18:09:14.171Z,59.64
2023-03-03T18:12:07.501Z,61.84
2023-03-03T18:14:42.436Z,64.06
2023-03-03T18:17:40.118Z,63.88
2023-03-03T18:20:57.109Z,62.48
2023-03-03T18:23:44.466Z,61.12
2023-03-03T18:26:33.760Z,60.26
2023-03-03T18:29:24.476Z,59.30
2023-03-03T18:32:23.605Z,59.98
2023-03-03T18:35:34.405Z,62.58
2023-03-03T18:38:38.516Z,64.08
2023-03-03T18:41:34.135Z,62.57
2023-03-03T18:44:31.128Z,61.33
2023-03-03T18:47:02.687Z,60.49
2023-03-03T18:50:02.962Z,59.56
2023-03-03T18:53:23.821Z,59.88
2023-03-03T18:56:00.650Z,62.60
2023-03-03T18:58:34.813Z,64.11
2023-03-03T19:01:12.495Z,63.23
2023-03-03T19:04:13.219Z,61.99
2023-03-03T19:07:03.266Z,60.81
2023-03-03T19:09:52.812Z,60.29
2023-03-03T19:12:53.931Z,59.76
2023-03-03T19:15:40.207Z,59.10
2023-03-03T19:18:44.099Z,61.09
2023-03-03T19:21:43.181Z,63.68
2023-03-03T19:24:50.334Z,63.21
2023-03-03T19:27:43.816Z,61.98
2023-03-03T19:30:24.177Z,60.93
2023-03-03T19:33:34.349Z,59.96
2023-03-03T19:36:31.801Z,59.57
2023-03-03T19:39:30.756Z,60.00
2023-03-03T19:42:32.424Z,62.35
2023-03-03T19:45:13.215Z,64.31
2023-03-03T19:47:53.577Z,62.91
2023-03-03T19:50:47.280Z,61.87
2023-03-03T19:53:36.734Z,60.99
2023-03-03T19:56:20.622Z,60.37
2023-03-03T19:59:19.949Z,60.00
2023-03-03T20:02:02.954Z,59.79
2023-03-03T20:04:57.255Z,61.68
2023-03-03T20:08:16.052Z,63.60
2023-03-03T20:10:54.795Z,62.97
2023-03-03T20:14:09.376Z,62.04
2023-03-03T20:16:42.315Z,61.05
2023-03-03T20:20:07.474Z,60.34
2023-03-03T20:23:05.352Z,60.32
2023-03-03T20:26:02.554Z,60.35
2023-03-03T20:28:46.551Z,59.64
2023-03-03T20:31:34.586Z,59.19
2023-03-03T20:34:36.912Z,61.19
2023-03-03T20:37:32.752Z,63.60
2023-03-03T20:40:41.723Z,62.78
2023-03-03T20:43:30.610Z,61.99
2023-03-03T20:46:23.835Z,61.33
2023-03-03T20:49:15.084Z,61.04
2023-03-03T20:52:13.176Z,60.37
2023-03-03T20:55:02.135Z,59.90
2023-03-03T20:57:55.809Z,59.77
2023-03-03T21:00:43.843Z,62.38
2023-03-03T21:03:34.823Z,63.78
2023-03-03T21:06:16.195Z,62.77
2023-03-03T21:08:59.826Z,61.89
2023-03-03T21:11:33.722Z,61.13
2023-03-03T21:14:23.084Z,60.61
2023-03-03T21:17:28.431Z,60.50
2023-03-03T21:20:23.604Z,60.29
2023-03-03T21:22:56.044Z,60.00
2023-03-03T21:25:43.509Z,59.45
2023-03-03T21:28:20.698Z,60.80
2023-03-03T21:31:37.717Z,63.39
2023-03-03T21:34:20.892Z,63.85
2023-03-03T21:37:07.362Z,62.65
2023-03-03T21:39:39.619Z,61.73
2023-03-03T21:42:44.645Z,61.18
2023-03-03T21:45:22.392Z,60.46
2023-03-03T21:47:57.712Z,60.15
2023-03-03T21:50:41.495Z,59.54
2023-03-03T21:53:13.328Z,59.52
2023-03-03T21:55:49.701Z,61.99
2023-03-03T21:58:23.941Z,63.63
2023-03-03T22:01:00.247Z,63.04
2023-03-03T22:03:33.530Z,62.18
2023-03-03T22:06:13.899Z,61.28
2023-03-03T22:08:48.709Z,60.79
2023-03-03T22:11:29.689Z,60.57
2023-03-03T22:13:59.360Z,60.38
2023-03-03T22:16:42.726Z,60.18
2023-03-03T22:19:14.429Z,59.84
2023-03-03T22:21:49.554Z,59.54
2023-03-03T22:24:23.351Z,59.33
2023-03-03T22:26:57.643Z,61.21
2023-03-03T22:29:32.201Z,63.50
2023-03-03T22:32:06.850Z,63.43
2023-03-03T22:34:40.379Z,62.66
2023-03-03T22:37:13.452Z,62.00
2023-03-03T22:39:46.090Z,61.45
2023-03-03T22:42:20.447Z,60.72
2023-03-03T22:45:04.384Z,60.39
2023-03-03T22:47:40.262Z,60.08
2023-03-03T22:50:12.971Z,59.66
2023-03-03T22:52:43.320Z,59.41
2023-03-03T22:55:19.571Z,61.92
2023-03-03T22:58:10.120Z,64.23
2023-03-03T23:00:43.413Z,63.62
2023-03-03T23:03:15.196Z,62.52
2023-03-03T23:05:49.040Z,61.83
2023-03-03T23:08:22.168Z,61.22
2023-03-03T23:11:12.269Z,60.72
2023-03-03T23:13:43.253Z,60.47
2023-03-03T23:16:39.083Z,60.34
2023-03-03T23:19:21.896Z,60.28
2023-03-03T23:21:55.404Z,59.90
2023-03-03T23:24:30.496Z,59.44
2023-03-03T23:27:01.398Z,59.74
2023-03-03T23:29:53.551Z,62.56
2023-03-03T23:32:26.961Z,63.68
2023-03-03T23:35:07.676Z,62.84
2023-03-03T23:37:41.315Z,61.84
2023-03-03T23:40:16.825Z,61.17
2023-03-03T23:42:50.756Z,60.57
2023-03-03T23:45:30.206Z,59.85
2023-03-03T23:48:04.759Z,59.42
2023-03-03T23:50:38.483Z,59.56
2023-03-03T23:53:11.060Z,61.40
2023-03-03T23:56:12.359Z,63.72
2023-03-03T23:58:43.182Z,63.35
